sensor_id;sensor_type;location;lat;lon;timestamp;P1;durP1;ratioP1;P2;durP2;ratioP2
36355;SDS011;22384;54.302;18.596;2024-03-02T00:00:44;41.65;;;25.65;;
36355;SDS011;22384;54.302;18.596;2024-03-02T00:03:11;47.95;;;25.80;;
36355;SDS011;22384;54.302;18.596;2024-03-02T00:05:39;41.97;;;25.58;;
36355;SDS011;22384;54.302;18.596;2024-03-02T00:08:05;45.17;;;26.23;;
36355;SDS011;22384;54.302;18.596;2024-03-02T00:10:37;48.97;;;27.33;;
36355;SDS011;22384;54.302;18.596;2024-03-02T00:13:07;47.03;;;26.73;;
36355;SDS011;22384;54.302;18.596;2024-03-02T00:18:02;45.97;;;26.50;;
36355;SDS011;22384;54.302;18.596;2024-03-02T00:20:30;48.17;;;26.80;;
36355;SDS011;22384;54.302;18.596;2024-03-02T00:23:03;41.88;;;25.25;;
36355;SDS011;22384;54.302;18.596;2024-03-02T00:25:51;45.50;;;25.95;;
36355;SDS011;22384;54.302;18.596;2024-03-02T00:28:25;47.63;;;26.45;;
36355;SDS011;22384;54.302;18.596;2024-03-02T00:33:26;45.88;;;25.20;;
36355;SDS011;22384;54.302;18.596;2024-03-02T00:35:55;48.00;;;26.42;;
36355;SDS011;22384;54.302;18.596;2024-03-02T00:38:21;41.83;;;26.73;;
36355;SDS011;22384;54.302;18.596;2024-03-02T00:40:48;46.63;;;25.52;;
36355;SDS011;22384;54.302;18.596;2024-03-02T00:45:49;43.17;;;24.58;;
36355;SDS011;22384;54.302;18.596;2024-03-02T00:48:15;40.85;;;24.00;;
36355;SDS011;22384;54.302;18.596;2024-03-02T00:50:42;42.00;;;24.65;;
36355;SDS011;22384;54.302;18.596;2024-03-02T00:53:11;44.47;;;24.52;;
36355;SDS011;22384;54.302;18.596;2024-03-02T00:55:37;45.63;;;26.67;;
36355;SDS011;22384;54.302;18.596;2024-03-02T00:58:04;46.80;;;25.95;;
36355;SDS011;22384;54.302;18.596;2024-03-02T01:00:30;38.80;;;23.58;;
36355;SDS011;22384;54.302;18.596;2024-03-02T01:02:56;43.78;;;25.00;;
36355;SDS011;22384;54.302;18.596;2024-03-02T01:05:23;46.58;;;24.67;;
36355;SDS011;22384;54.302;18.596;2024-03-02T01:07:49;46.22;;;25.13;;
36355;SDS011;22384;54.302;18.596;2024-03-02T01:10:15;45.55;;;25.63;;
36355;SDS011;22384;54.302;18.596;2024-03-02T01:12:41;43.28;;;24.15;;
36355;SDS011;22384;54.302;18.596;2024-03-02T01:15:07;43.78;;;25.65;;
36355;SDS011;22384;54.302;18.596;2024-03-02T01:17:33;43.08;;;26.40;;
36355;SDS011;22384;54.302;18.596;2024-03-02T01:19:59;46.53;;;24.58;;
36355;SDS011;22384;54.302;18.596;2024-03-02T01:22:25;43.88;;;25.63;;
36355;SDS011;22384;54.302;18.596;2024-03-02T01:24:51;41.10;;;24.60;;
36355;SDS011;22384;54.302;18.596;2024-03-02T01:27:17;43.58;;;25.23;;
36355;SDS011;22384;54.302;18.596;2024-03-02T01:29:43;53.40;;;25.65;;
36355;SDS011;22384;54.302;18.596;2024-03-02T01:32:09;44.33;;;25.48;;
36355;SDS011;22384;54.302;18.596;2024-03-02T01:34:36;42.03;;;23.80;;
36355;SDS011;22384;54.302;18.596;2024-03-02T01:37:02;48.25;;;26.52;;
36355;SDS011;22384;54.302;18.596;2024-03-02T01:39:28;47.10;;;24.67;;
36355;SDS011;22384;54.302;18.596;2024-03-02T01:41:54;47.88;;;26.20;;
36355;SDS011;22384;54.302;18.596;2024-03-02T01:44:21;41.75;;;24.98;;
36355;SDS011;22384;54.302;18.596;2024-03-02T01:46:47;47.60;;;25.83;;
36355;SDS011;22384;54.302;18.596;2024-03-02T01:49:13;43.58;;;24.75;;
36355;SDS011;22384;54.302;18.596;2024-03-02T01:51:39;46.00;;;24.65;;
36355;SDS011;22384;54.302;18.596;2024-03-02T01:54:05;42.85;;;24.25;;
36355;SDS011;22384;54.302;18.596;2024-03-02T01:56:31;47.13;;;24.98;;
36355;SDS011;22384;54.302;18.596;2024-03-02T01:58:57;45.55;;;25.58;;
36355;SDS011;22384;54.302;18.596;2024-03-02T02:01:23;46.67;;;25.40;;
36355;SDS011;22384;54.302;18.596;2024-03-02T02:03:49;44.97;;;25.20;;
36355;SDS011;22384;54.302;18.596;2024-03-02T02:06:15;45.67;;;24.73;;
36355;SDS011;22384;54.302;18.596;2024-03-02T02:08:41;48.00;;;25.05;;
36355;SDS011;22384;54.302;18.596;2024-03-02T02:11:07;40.72;;;23.98;;
36355;SDS011;22384;54.302;18.596;2024-03-02T02:13:33;46.83;;;25.17;;
36355;SDS011;22384;54.302;18.596;2024-03-02T02:16:09;52.67;;;26.70;;
36355;SDS011;22384;54.302;18.596;2024-03-02T02:18:35;41.95;;;24.65;;
36355;SDS011;22384;54.302;18.596;2024-03-02T02:21:01;45.15;;;24.25;;
36355;SDS011;22384;54.302;18.596;2024-03-02T02:23:27;46.78;;;24.60;;
36355;SDS011;22384;54.302;18.596;2024-03-02T02:25:53;39.40;;;22.90;;
36355;SDS011;22384;54.302;18.596;2024-03-02T02:28:19;41.67;;;23.60;;
36355;SDS011;22384;54.302;18.596;2024-03-02T02:30:46;46.55;;;23.27;;
36355;SDS011;22384;54.302;18.596;2024-03-02T02:33:12;42.40;;;23.08;;
36355;SDS011;22384;54.302;18.596;2024-03-02T02:35:38;43.33;;;23.52;;
36355;SDS011;22384;54.302;18.596;2024-03-02T02:38:04;45.90;;;24.02;;
36355;SDS011;22384;54.302;18.596;2024-03-02T02:40:30;39.75;;;23.38;;
36355;SDS011;22384;54.302;18.596;2024-03-02T02:42:57;41.80;;;23.98;;
36355;SDS011;22384;54.302;18.596;2024-03-02T02:45:24;41.78;;;22.88;;
36355;SDS011;22384;54.302;18.596;2024-03-02T02:47:50;41.08;;;22.88;;
36355;SDS011;22384;54.302;18.596;2024-03-02T02:50:16;43.40;;;24.10;;
36355;SDS011;22384;54.302;18.596;2024-03-02T02:52:42;43.33;;;23.25;;
36355;SDS011;22384;54.302;18.596;2024-03-02T02:55:09;43.65;;;24.52;;
36355;SDS011;22384;54.302;18.596;2024-03-02T02:57:36;46.38;;;24.58;;
36355;SDS011;22384;54.302;18.596;2024-03-02T03:00:05;42.83;;;24.52;;
36355;SDS011;22384;54.302;18.596;2024-03-02T03:02:35;42.60;;;23.10;;
36355;SDS011;22384;54.302;18.596;2024-03-02T03:05:01;44.08;;;23.42;;
36355;SDS011;22384;54.302;18.596;2024-03-02T03:07:27;39.60;;;23.27;;
36355;SDS011;22384;54.302;18.596;2024-03-02T03:09:53;42.40;;;24.05;;
36355;SDS011;22384;54.302;18.596;2024-03-02T03:12:19;42.33;;;24.70;;
36355;SDS011;22384;54.302;18.596;2024-03-02T03:14:45;47.47;;;24.75;;
36355;SDS011;22384;54.302;18.596;2024-03-02T03:17:11;45.45;;;25.23;;
36355;SDS011;22384;54.302;18.596;2024-03-02T03:19:38;51.08;;;25.30;;
36355;SDS011;22384;54.302;18.596;2024-03-02T03:22:04;44.25;;;25.27;;
36355;SDS011;22384;54.302;18.596;2024-03-02T03:24:30;42.72;;;24.08;;
36355;SDS011;22384;54.302;18.596;2024-03-02T03:26:58;47.05;;;24.38;;
36355;SDS011;22384;54.302;18.596;2024-03-02T03:29:24;46.47;;;25.52;;
36355;SDS011;22384;54.302;18.596;2024-03-02T03:31:50;49.35;;;26.13;;
36355;SDS011;22384;54.302;18.596;2024-03-02T03:34:16;48.92;;;26.17;;
36355;SDS011;22384;54.302;18.596;2024-03-02T03:36:42;45.92;;;25.30;;
36355;SDS011;22384;54.302;18.596;2024-03-02T03:39:08;48.50;;;25.75;;
36355;SDS011;22384;54.302;18.596;2024-03-02T03:41:34;47.80;;;25.17;;
36355;SDS011;22384;54.302;18.596;2024-03-02T03:44:01;46.25;;;26.08;;
36355;SDS011;22384;54.302;18.596;2024-03-02T03:46:27;42.67;;;24.70;;
36355;SDS011;22384;54.302;18.596;2024-03-02T03:48:53;44.03;;;25.65;;
36355;SDS011;22384;54.302;18.596;2024-03-02T03:51:19;40.95;;;24.30;;
36355;SDS011;22384;54.302;18.596;2024-03-02T03:53:45;43.67;;;24.77;;
36355;SDS011;22384;54.302;18.596;2024-03-02T03:56:11;43.67;;;26.25;;
36355;SDS011;22384;54.302;18.596;2024-03-02T03:58:37;47.25;;;25.30;;
36355;SDS011;22384;54.302;18.596;2024-03-02T04:01:03;44.85;;;25.35;;
36355;SDS011;22384;54.302;18.596;2024-03-02T04:03:29;47.03;;;25.25;;
36355;SDS011;22384;54.302;18.596;2024-03-02T04:05:56;45.97;;;25.02;;
36355;SDS011;22384;54.302;18.596;2024-03-02T04:08:22;42.67;;;25.25;;
36355;SDS011;22384;54.302;18.596;2024-03-02T04:10:48;45.28;;;25.38;;
36355;SDS011;22384;54.302;18.596;2024-03-02T04:13:14;47.97;;;26.08;;
36355;SDS011;22384;54.302;18.596;2024-03-02T04:15:40;44.17;;;25.85;;
36355;SDS011;22384;54.302;18.596;2024-03-02T04:18:06;45.08;;;25.45;;
36355;SDS011;22384;54.302;18.596;2024-03-02T04:20:32;44.13;;;24.73;;
36355;SDS011;22384;54.302;18.596;2024-03-02T04:22:58;46.00;;;26.30;;
36355;SDS011;22384;54.302;18.596;2024-03-02T04:25:24;50.35;;;26.33;;
36355;SDS011;22384;54.302;18.596;2024-03-02T04:27:51;46.22;;;26.25;;
36355;SDS011;22384;54.302;18.596;2024-03-02T04:30:17;45.80;;;26.23;;
36355;SDS011;22384;54.302;18.596;2024-03-02T04:32:43;49.83;;;26.55;;
36355;SDS011;22384;54.302;18.596;2024-03-02T04:35:11;48.25;;;26.30;;
36355;SDS011;22384;54.302;18.596;2024-03-02T04:37:40;52.03;;;26.65;;
36355;SDS011;22384;54.302;18.596;2024-03-02T04:40:06;46.65;;;26.25;;
36355;SDS011;22384;54.302;18.596;2024-03-02T04:42:33;46.35;;;25.67;;
36355;SDS011;22384;54.302;18.596;2024-03-02T04:44:59;45.30;;;25.85;;
36355;SDS011;22384;54.302;18.596;2024-03-02T04:47:25;50.72;;;26.67;;
36355;SDS011;22384;54.302;18.596;2024-03-02T04:49:51;46.70;;;25.70;;
36355;SDS011;22384;54.302;18.596;2024-03-02T04:52:18;47.78;;;25.70;;
36355;SDS011;22384;54.302;18.596;2024-03-02T04:54:44;47.50;;;26.77;;
36355;SDS011;22384;54.302;18.596;2024-03-02T04:57:29;44.35;;;25.25;;
36355;SDS011;22384;54.302;18.596;2024-03-02T04:59:55;46.25;;;25.65;;
36355;SDS011;22384;54.302;18.596;2024-03-02T05:02:21;46.25;;;25.88;;
36355;SDS011;22384;54.302;18.596;2024-03-02T05:04:47;48.80;;;25.42;;
36355;SDS011;22384;54.302;18.596;2024-03-02T05:07:14;49.65;;;25.60;;
36355;SDS011;22384;54.302;18.596;2024-03-02T05:09:40;45.47;;;26.88;;
36355;SDS011;22384;54.302;18.596;2024-03-02T05:12:07;47.22;;;26.40;;
36355;SDS011;22384;54.302;18.596;2024-03-02T05:14:42;44.67;;;26.05;;
36355;SDS011;22384;54.302;18.596;2024-03-02T05:17:08;48.53;;;25.05;;
36355;SDS011;22384;54.302;18.596;2024-03-02T05:19:34;50.65;;;24.88;;
36355;SDS011;22384;54.302;18.596;2024-03-02T05:22:00;43.22;;;25.50;;
36355;SDS011;22384;54.302;18.596;2024-03-02T05:24:26;45.58;;;25.27;;
36355;SDS011;22384;54.302;18.596;2024-03-02T05:26:53;45.97;;;27.08;;
36355;SDS011;22384;54.302;18.596;2024-03-02T05:29:19;50.50;;;26.48;;
36355;SDS011;22384;54.302;18.596;2024-03-02T05:31:45;46.45;;;26.73;;
36355;SDS011;22384;54.302;18.596;2024-03-02T05:34:11;49.95;;;26.08;;
36355;SDS011;22384;54.302;18.596;2024-03-02T05:36:38;46.05;;;26.17;;
36355;SDS011;22384;54.302;18.596;2024-03-02T05:39:04;44.85;;;25.83;;
36355;SDS011;22384;54.302;18.596;2024-03-02T05:41:33;47.65;;;27.58;;
36355;SDS011;22384;54.302;18.596;2024-03-02T05:43:59;49.65;;;27.15;;
36355;SDS011;22384;54.302;18.596;2024-03-02T05:46:26;47.85;;;26.17;;
36355;SDS011;22384;54.302;18.596;2024-03-02T05:48:52;47.90;;;25.55;;
36355;SDS011;22384;54.302;18.596;2024-03-02T05:51:18;48.42;;;25.67;;
36355;SDS011;22384;54.302;18.596;2024-03-02T05:53:44;55.38;;;27.63;;
36355;SDS011;22384;54.302;18.596;2024-03-02T05:56:11;52.95;;;26.85;;
36355;SDS011;22384;54.302;18.596;2024-03-02T05:58:37;49.25;;;26.70;;
36355;SDS011;22384;54.302;18.596;2024-03-02T06:01:22;48.67;;;27.63;;
36355;SDS011;22384;54.302;18.596;2024-03-02T06:03:53;48.30;;;26.25;;
36355;SDS011;22384;54.302;18.596;2024-03-02T06:06:19;53.83;;;27.58;;
36355;SDS011;22384;54.302;18.596;2024-03-02T06:08:46;53.35;;;28.00;;
36355;SDS011;22384;54.302;18.596;2024-03-02T06:11:12;51.58;;;27.45;;
36355;SDS011;22384;54.302;18.596;2024-03-02T06:13:38;51.08;;;26.13;;
36355;SDS011;22384;54.302;18.596;2024-03-02T06:16:04;50.30;;;27.25;;
36355;SDS011;22384;54.302;18.596;2024-03-02T06:18:30;49.42;;;27.17;;
36355;SDS011;22384;54.302;18.596;2024-03-02T06:20:56;53.00;;;27.25;;
36355;SDS011;22384;54.302;18.596;2024-03-02T06:23:22;49.33;;;27.08;;
36355;SDS011;22384;54.302;18.596;2024-03-02T06:25:48;49.20;;;27.10;;
36355;SDS011;22384;54.302;18.596;2024-03-02T06:28:14;49.67;;;27.30;;
36355;SDS011;22384;54.302;18.596;2024-03-02T06:30:41;51.13;;;27.38;;
36355;SDS011;22384;54.302;18.596;2024-03-02T06:33:08;52.28;;;28.35;;
36355;SDS011;22384;54.302;18.596;2024-03-02T06:35:34;51.72;;;28.05;;
36355;SDS011;22384;54.302;18.596;2024-03-02T06:38:00;53.38;;;27.13;;
36355;SDS011;22384;54.302;18.596;2024-03-02T06:40:26;52.70;;;27.33;;
36355;SDS011;22384;54.302;18.596;2024-03-02T06:42:53;52.67;;;29.33;;
36355;SDS011;22384;54.302;18.596;2024-03-02T06:45:19;56.40;;;28.48;;
36355;SDS011;22384;54.302;18.596;2024-03-02T06:47:45;48.80;;;27.67;;
36355;SDS011;22384;54.302;18.596;2024-03-02T06:50:11;57.72;;;28.77;;
36355;SDS011;22384;54.302;18.596;2024-03-02T06:52:37;54.15;;;26.70;;
36355;SDS011;22384;54.302;18.596;2024-03-02T06:55:03;52.00;;;28.23;;
36355;SDS011;22384;54.302;18.596;2024-03-02T06:57:30;52.08;;;26.35;;
36355;SDS011;22384;54.302;18.596;2024-03-02T06:59:56;55.28;;;29.40;;
36355;SDS011;22384;54.302;18.596;2024-03-02T07:02:26;51.88;;;28.10;;
36355;SDS011;22384;54.302;18.596;2024-03-02T07:04:55;54.90;;;30.30;;
36355;SDS011;22384;54.302;18.596;2024-03-02T07:07:21;53.80;;;28.65;;
36355;SDS011;22384;54.302;18.596;2024-03-02T07:09:47;58.20;;;28.75;;
36355;SDS011;22384;54.302;18.596;2024-03-02T07:12:13;53.33;;;28.75;;
36355;SDS011;22384;54.302;18.596;2024-03-02T07:14:40;50.97;;;29.05;;
36355;SDS011;22384;54.302;18.596;2024-03-02T07:17:41;60.40;;;30.42;;
36355;SDS011;22384;54.302;18.596;2024-03-02T07:20:07;57.92;;;30.30;;
36355;SDS011;22384;54.302;18.596;2024-03-02T07:22:34;50.47;;;29.08;;
36355;SDS011;22384;54.302;18.596;2024-03-02T07:25:00;58.25;;;30.02;;
36355;SDS011;22384;54.302;18.596;2024-03-02T07:27:26;57.88;;;29.95;;
36355;SDS011;22384;54.302;18.596;2024-03-02T07:29:52;57.63;;;30.73;;
36355;SDS011;22384;54.302;18.596;2024-03-02T07:35:57;57.13;;;29.75;;
36355;SDS011;22384;54.302;18.596;2024-03-02T07:38:24;58.42;;;29.83;;
36355;SDS011;22384;54.302;18.596;2024-03-02T07:40:50;61.75;;;30.65;;
36355;SDS011;22384;54.302;18.596;2024-03-02T07:43:17;65.18;;;29.52;;
36355;SDS011;22384;54.302;18.596;2024-03-02T07:45:44;55.55;;;30.48;;
36355;SDS011;22384;54.302;18.596;2024-03-02T07:48:10;57.33;;;29.65;;
36355;SDS011;22384;54.302;18.596;2024-03-02T07:50:36;53.92;;;28.42;;
36355;SDS011;22384;54.302;18.596;2024-03-02T07:53:03;52.90;;;28.83;;
36355;SDS011;22384;54.302;18.596;2024-03-02T07:55:30;54.15;;;29.35;;
36355;SDS011;22384;54.302;18.596;2024-03-02T07:57:56;55.33;;;29.48;;
36355;SDS011;22384;54.302;18.596;2024-03-02T08:00:22;55.35;;;28.33;;
36355;SDS011;22384;54.302;18.596;2024-03-02T08:06:08;55.47;;;28.73;;
36355;SDS011;22384;54.302;18.596;2024-03-02T09:11:40;56.30;;;30.45;;
36355;SDS011;22384;54.302;18.596;2024-03-02T09:44:33;52.30;;;28.05;;
36355;SDS011;22384;54.302;18.596;2024-03-02T09:47:00;51.80;;;28.83;;
36355;SDS011;22384;54.302;18.596;2024-03-02T09:49:27;52.20;;;28.40;;
36355;SDS011;22384;54.302;18.596;2024-03-02T09:51:53;49.88;;;28.23;;
36355;SDS011;22384;54.302;18.596;2024-03-02T09:54:19;50.10;;;28.33;;
36355;SDS011;22384;54.302;18.596;2024-03-02T09:56:46;55.47;;;29.38;;
36355;SDS011;22384;54.302;18.596;2024-03-02T09:59:12;46.78;;;28.13;;
36355;SDS011;22384;54.302;18.596;2024-03-02T10:01:55;52.30;;;28.30;;
36355;SDS011;22384;54.302;18.596;2024-03-02T10:04:21;50.42;;;27.67;;
36355;SDS011;22384;54.302;18.596;2024-03-02T10:06:47;47.78;;;26.88;;
36355;SDS011;22384;54.302;18.596;2024-03-02T10:09:13;50.03;;;27.45;;
36355;SDS011;22384;54.302;18.596;2024-03-02T10:11:52;48.13;;;28.25;;
36355;SDS011;22384;54.302;18.596;2024-03-02T10:14:18;49.40;;;27.88;;
36355;SDS011;22384;54.302;18.596;2024-03-02T10:16:44;53.30;;;27.90;;
36355;SDS011;22384;54.302;18.596;2024-03-02T10:19:20;52.20;;;28.88;;
36355;SDS011;22384;54.302;18.596;2024-03-02T10:21:47;49.55;;;29.25;;
36355;SDS011;22384;54.302;18.596;2024-03-02T10:24:14;50.70;;;27.02;;
36355;SDS011;22384;54.302;18.596;2024-03-02T10:26:40;50.95;;;29.40;;
36355;SDS011;22384;54.302;18.596;2024-03-02T10:29:08;48.25;;;28.83;;
36355;SDS011;22384;54.302;18.596;2024-03-02T10:31:35;50.95;;;30.10;;
36355;SDS011;22384;54.302;18.596;2024-03-02T10:34:02;54.25;;;28.48;;
36355;SDS011;22384;54.302;18.596;2024-03-02T10:36:28;52.38;;;27.92;;
36355;SDS011;22384;54.302;18.596;2024-03-02T10:38:57;49.03;;;27.83;;
36355;SDS011;22384;54.302;18.596;2024-03-02T10:41:24;49.20;;;28.90;;
36355;SDS011;22384;54.302;18.596;2024-03-02T10:43:52;49.35;;;29.13;;
36355;SDS011;22384;54.302;18.596;2024-03-02T10:46:26;45.70;;;27.33;;
36355;SDS011;22384;54.302;18.596;2024-03-02T10:48:54;44.80;;;26.90;;
36355;SDS011;22384;54.302;18.596;2024-03-02T10:51:20;48.70;;;27.38;;
36355;SDS011;22384;54.302;18.596;2024-03-02T10:53:47;52.28;;;27.65;;
36355;SDS011;22384;54.302;18.596;2024-03-02T10:56:15;43.10;;;26.13;;
36355;SDS011;22384;54.302;18.596;2024-03-02T10:58:42;47.15;;;26.50;;
36355;SDS011;22384;54.302;18.596;2024-03-02T11:01:08;42.38;;;25.90;;
36355;SDS011;22384;54.302;18.596;2024-03-02T11:03:37;42.97;;;25.13;;
36355;SDS011;22384;54.302;18.596;2024-03-02T11:06:04;41.97;;;24.88;;
36355;SDS011;22384;54.302;18.596;2024-03-02T11:08:33;46.50;;;25.67;;
36355;SDS011;22384;54.302;18.596;2024-03-02T11:11:03;42.45;;;24.70;;
36355;SDS011;22384;54.302;18.596;2024-03-02T11:13:32;49.05;;;26.38;;
36355;SDS011;22384;54.302;18.596;2024-03-02T11:16:21;44.53;;;25.05;;
36355;SDS011;22384;54.302;18.596;2024-03-02T11:18:47;40.17;;;24.90;;
36355;SDS011;22384;54.302;18.596;2024-03-02T11:21:15;43.83;;;26.10;;
36355;SDS011;22384;54.302;18.596;2024-03-02T11:23:41;44.88;;;27.05;;
36355;SDS011;22384;54.302;18.596;2024-03-02T11:26:19;49.90;;;26.50;;
36355;SDS011;22384;54.302;18.596;2024-03-02T11:28:46;46.67;;;26.50;;
36355;SDS011;22384;54.302;18.596;2024-03-02T11:31:12;43.47;;;25.63;;
36355;SDS011;22384;54.302;18.596;2024-03-02T11:33:38;43.28;;;24.88;;
36355;SDS011;22384;54.302;18.596;2024-03-02T11:36:07;49.25;;;25.90;;
36355;SDS011;22384;54.302;18.596;2024-03-02T11:38:34;41.10;;;24.85;;
36355;SDS011;22384;54.302;18.596;2024-03-02T11:41:01;44.15;;;25.60;;
36355;SDS011;22384;54.302;18.596;2024-03-02T11:43:28;44.75;;;23.85;;
36355;SDS011;22384;54.302;18.596;2024-03-02T11:45:57;43.03;;;24.80;;
36355;SDS011;22384;54.302;18.596;2024-03-02T11:48:24;45.38;;;24.77;;
36355;SDS011;22384;54.302;18.596;2024-03-02T11:50:51;44.75;;;25.70;;
36355;SDS011;22384;54.302;18.596;2024-03-02T11:53:17;38.50;;;23.73;;
36355;SDS011;22384;54.302;18.596;2024-03-02T11:55:43;40.60;;;25.00;;
36355;SDS011;22384;54.302;18.596;2024-03-02T11:58:13;42.58;;;24.38;;
36355;SDS011;22384;54.302;18.596;2024-03-02T12:00:39;39.50;;;24.23;;
36355;SDS011;22384;54.302;18.596;2024-03-02T12:05:31;41.80;;;24.42;;
36355;SDS011;22384;54.302;18.596;2024-03-02T12:07:58;40.72;;;23.50;;
36355;SDS011;22384;54.302;18.596;2024-03-02T12:10:25;41.03;;;23.60;;
36355;SDS011;22384;54.302;18.596;2024-03-02T12:12:58;40.35;;;24.63;;
36355;SDS011;22384;54.302;18.596;2024-03-02T12:15:28;47.53;;;24.77;;
36355;SDS011;22384;54.302;18.596;2024-03-02T12:17:58;47.03;;;25.83;;
36355;SDS011;22384;54.302;18.596;2024-03-02T12:20:24;44.10;;;25.47;;
36355;SDS011;22384;54.302;18.596;2024-03-02T12:22:54;47.63;;;24.90;;
36355;SDS011;22384;54.302;18.596;2024-03-02T12:25:21;51.40;;;25.67;;
36355;SDS011;22384;54.302;18.596;2024-03-02T12:27:48;44.13;;;24.80;;
36355;SDS011;22384;54.302;18.596;2024-03-02T12:30:16;42.13;;;25.27;;
36355;SDS011;22384;54.302;18.596;2024-03-02T12:32:42;43.45;;;25.45;;
36355;SDS011;22384;54.302;18.596;2024-03-02T12:35:08;47.53;;;24.30;;
36355;SDS011;22384;54.302;18.596;2024-03-02T12:37:42;43.65;;;25.83;;
36355;SDS011;22384;54.302;18.596;2024-03-02T12:40:09;44.75;;;25.05;;
36355;SDS011;22384;54.302;18.596;2024-03-02T12:42:36;43.15;;;25.65;;
36355;SDS011;22384;54.302;18.596;2024-03-02T12:45:02;42.63;;;25.27;;
36355;SDS011;22384;54.302;18.596;2024-03-02T12:47:29;40.40;;;24.35;;
36355;SDS011;22384;54.302;18.596;2024-03-02T12:49:55;40.72;;;25.20;;
36355;SDS011;22384;54.302;18.596;2024-03-02T12:52:22;43.65;;;23.75;;
36355;SDS011;22384;54.302;18.596;2024-03-02T12:54:49;44.55;;;25.95;;
36355;SDS011;22384;54.302;18.596;2024-03-02T12:57:18;45.20;;;26.50;;
36355;SDS011;22384;54.302;18.596;2024-03-02T12:59:45;45.40;;;25.80;;
36355;SDS011;22384;54.302;18.596;2024-03-02T13:02:17;47.08;;;25.60;;
36355;SDS011;22384;54.302;18.596;2024-03-02T13:04:44;47.08;;;25.77;;
36355;SDS011;22384;54.302;18.596;2024-03-02T13:07:10;40.03;;;24.17;;
36355;SDS011;22384;54.302;18.596;2024-03-02T13:09:38;47.85;;;25.77;;
36355;SDS011;22384;54.302;18.596;2024-03-02T13:15:08;43.20;;;26.10;;
36355;SDS011;22384;54.302;18.596;2024-03-02T13:17:34;45.95;;;26.00;;
36355;SDS011;22384;54.302;18.596;2024-03-02T13:20:00;39.42;;;25.45;;
36355;SDS011;22384;54.302;18.596;2024-03-02T13:22:29;43.10;;;24.75;;
36355;SDS011;22384;54.302;18.596;2024-03-02T13:24:55;43.25;;;25.38;;
36355;SDS011;22384;54.302;18.596;2024-03-02T13:27:22;43.72;;;25.67;;
36355;SDS011;22384;54.302;18.596;2024-03-02T13:29:48;45.03;;;25.70;;
36355;SDS011;22384;54.302;18.596;2024-03-02T13:32:15;40.65;;;24.20;;
36355;SDS011;22384;54.302;18.596;2024-03-02T13:34:41;39.45;;;24.05;;
36355;SDS011;22384;54.302;18.596;2024-03-02T13:37:08;42.10;;;24.08;;
36355;SDS011;22384;54.302;18.596;2024-03-02T13:39:34;41.10;;;25.30;;
36355;SDS011;22384;54.302;18.596;2024-03-02T13:45:08;41.90;;;24.77;;
36355;SDS011;22384;54.302;18.596;2024-03-02T13:47:34;39.63;;;24.65;;
36355;SDS011;22384;54.302;18.596;2024-03-02T13:50:00;40.00;;;24.88;;
36355;SDS011;22384;54.302;18.596;2024-03-02T13:52:27;45.28;;;27.13;;
36355;SDS011;22384;54.302;18.596;2024-03-02T13:54:53;43.10;;;24.77;;
36355;SDS011;22384;54.302;18.596;2024-03-02T14:50:16;42.28;;;24.20;;
36355;SDS011;22384;54.302;18.596;2024-03-02T14:52:42;43.53;;;24.02;;
36355;SDS011;22384;54.302;18.596;2024-03-02T14:55:10;38.33;;;23.88;;
36355;SDS011;22384;54.302;18.596;2024-03-02T14:57:36;41.22;;;23.95;;
36355;SDS011;22384;54.302;18.596;2024-03-02T15:00:02;39.63;;;22.55;;
36355;SDS011;22384;54.302;18.596;2024-03-02T15:02:30;38.58;;;23.13;;
36355;SDS011;22384;54.302;18.596;2024-03-02T15:04:57;38.75;;;23.23;;
36355;SDS011;22384;54.302;18.596;2024-03-02T15:07:23;38.78;;;21.80;;
36355;SDS011;22384;54.302;18.596;2024-03-02T15:09:49;44.97;;;23.98;;
36355;SDS011;22384;54.302;18.596;2024-03-02T15:12:15;41.33;;;22.67;;
36355;SDS011;22384;54.302;18.596;2024-03-02T15:14:42;44.63;;;23.65;;
36355;SDS011;22384;54.302;18.596;2024-03-02T15:17:15;44.70;;;24.88;;
36355;SDS011;22384;54.302;18.596;2024-03-02T15:19:42;38.92;;;23.17;;
36355;SDS011;22384;54.302;18.596;2024-03-02T15:22:08;43.95;;;24.13;;
36355;SDS011;22384;54.302;18.596;2024-03-02T15:24:35;39.05;;;22.92;;
36355;SDS011;22384;54.302;18.596;2024-03-02T15:27:01;36.63;;;22.40;;
36355;SDS011;22384;54.302;18.596;2024-03-02T15:29:30;45.63;;;23.75;;
36355;SDS011;22384;54.302;18.596;2024-03-02T15:31:56;38.25;;;22.77;;
36355;SDS011;22384;54.302;18.596;2024-03-02T15:34:22;37.83;;;22.70;;
36355;SDS011;22384;54.302;18.596;2024-03-02T15:36:49;40.30;;;23.63;;
36355;SDS011;22384;54.302;18.596;2024-03-02T15:39:15;41.85;;;23.05;;
36355;SDS011;22384;54.302;18.596;2024-03-02T15:41:43;41.92;;;23.75;;
36355;SDS011;22384;54.302;18.596;2024-03-02T15:44:09;40.42;;;23.23;;
36355;SDS011;22384;54.302;18.596;2024-03-02T15:46:35;43.15;;;23.50;;
36355;SDS011;22384;54.302;18.596;2024-03-02T15:49:02;46.08;;;23.23;;
36355;SDS011;22384;54.302;18.596;2024-03-02T15:51:30;44.15;;;24.63;;
36355;SDS011;22384;54.302;18.596;2024-03-02T15:53:58;43.10;;;24.20;;
36355;SDS011;22384;54.302;18.596;2024-03-02T15:56:24;42.17;;;23.10;;
36355;SDS011;22384;54.302;18.596;2024-03-02T15:58:50;49.78;;;24.00;;
36355;SDS011;22384;54.302;18.596;2024-03-02T16:01:16;43.72;;;23.67;;
36355;SDS011;22384;54.302;18.596;2024-03-02T16:03:43;43.13;;;22.52;;
36355;SDS011;22384;54.302;18.596;2024-03-02T16:06:09;42.72;;;22.80;;
36355;SDS011;22384;54.302;18.596;2024-03-02T16:08:35;42.00;;;23.23;;
36355;SDS011;22384;54.302;18.596;2024-03-02T16:11:03;43.10;;;24.25;;
36355;SDS011;22384;54.302;18.596;2024-03-02T16:13:29;47.35;;;24.40;;
36355;SDS011;22384;54.302;18.596;2024-03-02T16:15:56;40.88;;;23.58;;
36355;SDS011;22384;54.302;18.596;2024-03-02T16:18:22;48.88;;;23.10;;
36355;SDS011;22384;54.302;18.596;2024-03-02T16:20:48;45.08;;;23.45;;
36355;SDS011;22384;54.302;18.596;2024-03-02T16:23:14;46.28;;;23.65;;
36355;SDS011;22384;54.302;18.596;2024-03-02T16:25:41;46.40;;;23.52;;
36355;SDS011;22384;54.302;18.596;2024-03-02T16:28:07;44.70;;;23.27;;
36355;SDS011;22384;54.302;18.596;2024-03-02T16:30:33;47.15;;;24.80;;
36355;SDS011;22384;54.302;18.596;2024-03-02T16:32:59;44.70;;;22.88;;
36355;SDS011;22384;54.302;18.596;2024-03-02T16:35:26;48.60;;;25.30;;
36355;SDS011;22384;54.302;18.596;2024-03-02T16:37:52;45.83;;;24.23;;
36355;SDS011;22384;54.302;18.596;2024-03-02T16:40:18;45.00;;;24.17;;
36355;SDS011;22384;54.302;18.596;2024-03-02T16:42:44;50.10;;;25.23;;
36355;SDS011;22384;54.302;18.596;2024-03-02T16:45:10;51.20;;;27.60;;
36355;SDS011;22384;54.302;18.596;2024-03-02T16:47:37;53.10;;;28.27;;
36355;SDS011;22384;54.302;18.596;2024-03-02T16:50:03;65.10;;;34.13;;
36355;SDS011;22384;54.302;18.596;2024-03-02T16:52:31;64.20;;;36.35;;
36355;SDS011;22384;54.302;18.596;2024-03-02T16:54:57;58.08;;;31.75;;
36355;SDS011;22384;54.302;18.596;2024-03-02T16:57:23;53.88;;;29.90;;